Terminal Aerodrome Forecast
Issued by NWS

Home | Current Version | Previous Version | Text Only | Print | Product List | Glossary On
Versions: 1 2 3 4 5 6 7 8 9 10 11 12 13 14 15 16 17 18 19 20 21 22 23
000
FTUS41 KBTV 280137 AAA
TAFSLK
TAF AMD
KSLK 280137Z 2802/2824 01005KT 3SM -SHSN BR OVC012
      TEMPO 2802/2806 2SM -SN BR BKN009
     FM280800 02003KT P6SM OVC045
     FM281800 34006KT P6SM SKC=

USA.gov is the U.S. government's official web portal to all federal, state and local government web resources and services.